sensor_id;sensor_type;location;lat;lon;timestamp;pressure;altitude;pressure_sealevel;temperature;humidity
54816;BME280;40715;55.752;37.884;2022-10-30T00:00:28;97276.34;;;15.77;66.38
54816;BME280;40715;55.752;37.884;2022-10-30T00:02:55;97274.91;;;15.84;66.25
54816;BME280;40715;55.752;37.884;2022-10-30T00:05:25;97261.50;;;15.86;66.28
54816;BME280;40715;55.752;37.884;2022-10-30T00:07:56;97255.84;;;15.91;66.23
54816;BME280;40715;55.752;37.884;2022-10-30T00:10:24;97260.66;;;15.97;66.15
54816;BME280;40715;55.752;37.884;2022-10-30T00:12:51;97261.13;;;16.02;65.95
54816;BME280;40715;55.752;37.884;2022-10-30T00:15:18;97250.38;;;16.03;65.87
54816;BME280;40715;55.752;37.884;2022-10-30T00:17:45;97257.22;;;16.06;65.78
54816;BME280;40715;55.752;37.884;2022-10-30T00:20:11;97229.88;;;15.94;65.39
54816;BME280;40715;55.752;37.884;2022-10-30T00:22:38;97240.31;;;16.07;65.44
54816;BME280;40715;55.752;37.884;2022-10-30T00:25:05;97243.25;;;16.04;65.42
54816;BME280;40715;55.752;37.884;2022-10-30T00:27:32;97228.78;;;15.97;65.54
54816;BME280;40715;55.752;37.884;2022-10-30T00:29:59;97226.81;;;15.99;65.47
54816;BME280;40715;55.752;37.884;2022-10-30T00:32:27;97214.81;;;15.95;65.54
54816;BME280;40715;55.752;37.884;2022-10-30T00:34:54;97234.69;;;16.00;65.38
54816;BME280;40715;55.752;37.884;2022-10-30T00:37:21;97212.38;;;15.92;65.13
54816;BME280;40715;55.752;37.884;2022-10-30T00:39:48;97213.38;;;15.91;65.50
54816;BME280;40715;55.752;37.884;2022-10-30T00:42:15;97217.47;;;15.95;65.53
54816;BME280;40715;55.752;37.884;2022-10-30T00:44:50;97211.28;;;15.94;65.21
54816;BME280;40715;55.752;37.884;2022-10-30T00:47:27;97208.53;;;15.84;65.14
54816;BME280;40715;55.752;37.884;2022-10-30T00:50:00;97187.13;;;15.65;65.00
54816;BME280;40715;55.752;37.884;2022-10-30T00:52:35;97218.22;;;15.74;65.53
54816;BME280;40715;55.752;37.884;2022-10-30T00:55:11;97222.69;;;15.74;65.60
54816;BME280;40715;55.752;37.884;2022-10-30T00:57:40;97219.91;;;15.75;65.88
54816;BME280;40715;55.752;37.884;2022-10-30T01:00:09;97209.66;;;15.82;65.83
54816;BME280;40715;55.752;37.884;2022-10-30T01:02:37;97212.63;;;15.88;65.72
54816;BME280;40715;55.752;37.884;2022-10-30T01:05:05;97200.66;;;15.94;65.60
54816;BME280;40715;55.752;37.884;2022-10-30T01:07:32;97200.28;;;15.99;65.54
54816;BME280;40715;55.752;37.884;2022-10-30T01:09:59;97201.72;;;16.03;65.55
54816;BME280;40715;55.752;37.884;2022-10-30T01:12:28;97211.09;;;16.07;65.24
54816;BME280;40715;55.752;37.884;2022-10-30T01:14:57;97197.97;;;16.05;65.14
54816;BME280;40715;55.752;37.884;2022-10-30T01:23:28;97194.13;;;15.98;64.73
54816;BME280;40715;55.752;37.884;2022-10-30T01:26:25;97184.38;;;15.87;64.64
54816;BME280;40715;55.752;37.884;2022-10-30T01:34:50;97183.50;;;15.98;65.15
54816;BME280;40715;55.752;37.884;2022-10-30T01:37:23;97185.78;;;16.03;64.76
54816;BME280;40715;55.752;37.884;2022-10-30T01:39:51;97184.53;;;16.07;64.46
54816;BME280;40715;55.752;37.884;2022-10-30T01:45:05;97167.19;;;16.03;64.40
54816;BME280;40715;55.752;37.884;2022-10-30T01:48:09;97177.44;;;16.08;64.30
54816;BME280;40715;55.752;37.884;2022-10-30T01:53:59;97182.34;;;16.12;64.49
54816;BME280;40715;55.752;37.884;2022-10-30T01:56:42;97189.47;;;16.12;64.40
54816;BME280;40715;55.752;37.884;2022-10-30T01:59:30;97187.41;;;16.15;64.17
54816;BME280;40715;55.752;37.884;2022-10-30T02:01:58;97178.00;;;16.11;63.96
54816;BME280;40715;55.752;37.884;2022-10-30T02:04:25;97173.66;;;16.10;63.95
54816;BME280;40715;55.752;37.884;2022-10-30T02:06:53;97180.78;;;16.10;63.85
54816;BME280;40715;55.752;37.884;2022-10-30T02:09:20;97174.88;;;16.06;63.80
54816;BME280;40715;55.752;37.884;2022-10-30T02:11:48;97171.19;;;15.97;63.82
54816;BME280;40715;55.752;37.884;2022-10-30T02:14:21;97161.78;;;15.93;63.85
54816;BME280;40715;55.752;37.884;2022-10-30T02:16:52;97165.38;;;15.82;63.56
54816;BME280;40715;55.752;37.884;2022-10-30T02:19:20;97165.63;;;15.79;63.46
54816;BME280;40715;55.752;37.884;2022-10-30T02:21:48;97167.41;;;15.67;63.41
54816;BME280;40715;55.752;37.884;2022-10-30T02:24:15;97166.06;;;15.52;63.37
54816;BME280;40715;55.752;37.884;2022-10-30T02:26:42;97158.56;;;15.46;63.87
54816;BME280;40715;55.752;37.884;2022-10-30T02:29:09;97168.72;;;15.52;64.06
54816;BME280;40715;55.752;37.884;2022-10-30T02:31:36;97170.13;;;15.56;64.15
54816;BME280;40715;55.752;37.884;2022-10-30T02:34:03;97181.59;;;15.57;64.21
54816;BME280;40715;55.752;37.884;2022-10-30T02:36:30;97185.69;;;15.61;64.23
54816;BME280;40715;55.752;37.884;2022-10-30T02:38:57;97178.94;;;15.57;64.14
54816;BME280;40715;55.752;37.884;2022-10-30T02:41:24;97170.34;;;15.64;64.22
54816;BME280;40715;55.752;37.884;2022-10-30T02:43:51;97185.88;;;15.69;64.23
54816;BME280;40715;55.752;37.884;2022-10-30T02:46:19;97167.69;;;15.64;63.87
54816;BME280;40715;55.752;37.884;2022-10-30T02:48:46;97173.91;;;15.75;63.73
54816;BME280;40715;55.752;37.884;2022-10-30T02:51:13;97174.41;;;15.80;63.40
54816;BME280;40715;55.752;37.884;2022-10-30T02:53:40;97182.38;;;15.80;63.51
54816;BME280;40715;55.752;37.884;2022-10-30T02:56:11;97170.66;;;15.82;63.46
54816;BME280;40715;55.752;37.884;2022-10-30T02:58:38;97180.06;;;15.86;63.15
54816;BME280;40715;55.752;37.884;2022-10-30T03:01:11;97165.09;;;15.85;62.85
54816;BME280;40715;55.752;37.884;2022-10-30T03:03:39;97163.53;;;15.83;62.66
54816;BME280;40715;55.752;37.884;2022-10-30T03:06:08;97151.84;;;15.74;62.56
54816;BME280;40715;55.752;37.884;2022-10-30T03:08:36;97169.94;;;15.80;62.26
54816;BME280;40715;55.752;37.884;2022-10-30T03:11:15;97151.84;;;15.74;62.03
54816;BME280;40715;55.752;37.884;2022-10-30T03:13:43;97157.41;;;15.82;61.72
54816;BME280;40715;55.752;37.884;2022-10-30T03:16:16;97147.38;;;15.75;61.56
54816;BME280;40715;55.752;37.884;2022-10-30T03:18:44;97150.53;;;15.80;61.34
54816;BME280;40715;55.752;37.884;2022-10-30T03:21:13;97151.00;;;15.74;61.15
54816;BME280;40715;55.752;37.884;2022-10-30T03:23:40;97139.66;;;15.71;61.07
54816;BME280;40715;55.752;37.884;2022-10-30T03:26:08;97136.44;;;15.68;60.66
54816;BME280;40715;55.752;37.884;2022-10-30T03:28:35;97138.41;;;15.54;60.37
54816;BME280;40715;55.752;37.884;2022-10-30T03:31:10;97142.88;;;15.54;60.46
54816;BME280;40715;55.752;37.884;2022-10-30T03:33:37;97140.00;;;15.46;60.17
54816;BME280;40715;55.752;37.884;2022-10-30T03:36:08;97145.09;;;15.38;60.17
54816;BME280;40715;55.752;37.884;2022-10-30T03:38:36;97128.50;;;15.24;60.16
54816;BME280;40715;55.752;37.884;2022-10-30T03:41:03;97147.75;;;15.26;60.06
54816;BME280;40715;55.752;37.884;2022-10-30T03:43:31;97135.38;;;15.15;59.73
54816;BME280;40715;55.752;37.884;2022-10-30T03:45:58;97150.69;;;15.12;60.01
54816;BME280;40715;55.752;37.884;2022-10-30T03:48:27;97141.66;;;15.03;60.18
54816;BME280;40715;55.752;37.884;2022-10-30T03:50:55;97151.06;;;15.18;60.20
54816;BME280;40715;55.752;37.884;2022-10-30T03:53:23;97134.88;;;15.22;60.00
54816;BME280;40715;55.752;37.884;2022-10-30T03:55:52;97154.75;;;15.27;59.85
54816;BME280;40715;55.752;37.884;2022-10-30T03:58:22;97163.47;;;15.29;59.47
54816;BME280;40715;55.752;37.884;2022-10-30T04:00:49;97153.69;;;15.30;59.54
54816;BME280;40715;55.752;37.884;2022-10-30T04:03:16;97138.63;;;15.19;58.90
54816;BME280;40715;55.752;37.884;2022-10-30T04:05:43;97170.34;;;15.21;58.75
54816;BME280;40715;55.752;37.884;2022-10-30T04:08:11;97156.47;;;15.17;58.91
54816;BME280;40715;55.752;37.884;2022-10-30T04:10:42;97156.84;;;15.12;58.36
54816;BME280;40715;55.752;37.884;2022-10-30T04:13:11;97153.59;;;14.97;58.12
54816;BME280;40715;55.752;37.884;2022-10-30T04:15:39;97157.00;;;14.88;58.00
54816;BME280;40715;55.752;37.884;2022-10-30T04:18:09;97159.06;;;14.73;58.08
54816;BME280;40715;55.752;37.884;2022-10-30T04:20:37;97163.75;;;14.70;58.16
54816;BME280;40715;55.752;37.884;2022-10-30T04:23:05;97161.25;;;14.68;58.36
54816;BME280;40715;55.752;37.884;2022-10-30T04:25:33;97175.19;;;14.70;58.31
54816;BME280;40715;55.752;37.884;2022-10-30T04:28:01;97162.69;;;14.72;58.39
54816;BME280;40715;55.752;37.884;2022-10-30T04:30:28;97159.41;;;14.80;58.23
54816;BME280;40715;55.752;37.884;2022-10-30T04:33:00;97161.44;;;14.76;57.76
54816;BME280;40715;55.752;37.884;2022-10-30T04:35:30;97163.03;;;14.67;57.60
54816;BME280;40715;55.752;37.884;2022-10-30T04:38:00;97161.06;;;14.58;57.94
54816;BME280;40715;55.752;37.884;2022-10-30T04:40:29;97156.06;;;14.66;57.73
54816;BME280;40715;55.752;37.884;2022-10-30T04:42:56;97161.34;;;14.66;57.57
54816;BME280;40715;55.752;37.884;2022-10-30T04:45:24;97154.81;;;14.59;57.42
54816;BME280;40715;55.752;37.884;2022-10-30T04:47:52;97161.91;;;14.59;57.47
54816;BME280;40715;55.752;37.884;2022-10-30T04:50:19;97155.78;;;14.58;57.54
54816;BME280;40715;55.752;37.884;2022-10-30T04:52:45;97148.53;;;14.60;57.62
54816;BME280;40715;55.752;37.884;2022-10-30T04:55:12;97145.66;;;14.63;57.58
54816;BME280;40715;55.752;37.884;2022-10-30T04:57:39;97143.41;;;14.70;57.60
54816;BME280;40715;55.752;37.884;2022-10-30T05:00:07;97153.16;;;14.81;57.49
54816;BME280;40715;55.752;37.884;2022-10-30T05:02:35;97147.97;;;14.91;57.10
54816;BME280;40715;55.752;37.884;2022-10-30T05:05:05;97147.00;;;14.92;56.50
54816;BME280;40715;55.752;37.884;2022-10-30T05:07:32;97146.16;;;14.91;56.35
54816;BME280;40715;55.752;37.884;2022-10-30T05:09:59;97141.56;;;14.93;56.28
54816;BME280;40715;55.752;37.884;2022-10-30T05:12:25;97149.03;;;14.99;56.07
54816;BME280;40715;55.752;37.884;2022-10-30T05:14:52;97137.22;;;15.04;56.03
54816;BME280;40715;55.752;37.884;2022-10-30T05:17:20;97136.50;;;15.01;55.66
54816;BME280;40715;55.752;37.884;2022-10-30T05:19:47;97149.59;;;15.14;55.63
54816;BME280;40715;55.752;37.884;2022-10-30T05:22:14;97150.09;;;15.19;55.45
54816;BME280;40715;55.752;37.884;2022-10-30T05:24:41;97146.94;;;15.26;54.95
54816;BME280;40715;55.752;37.884;2022-10-30T05:27:07;97137.28;;;15.25;54.96
54816;BME280;40715;55.752;37.884;2022-10-30T05:29:34;97139.34;;;15.32;54.66
54816;BME280;40715;55.752;37.884;2022-10-30T05:32:01;97150.88;;;15.43;54.57
54816;BME280;40715;55.752;37.884;2022-10-30T05:34:28;97147.34;;;15.53;54.03
54816;BME280;40715;55.752;37.884;2022-10-30T05:36:55;97149.50;;;15.60;54.05
54816;BME280;40715;55.752;37.884;2022-10-30T05:39:22;97148.41;;;15.62;53.53
54816;BME280;40715;55.752;37.884;2022-10-30T05:41:49;97162.72;;;15.82;53.65
54816;BME280;40715;55.752;37.884;2022-10-30T05:44:16;97162.91;;;16.12;53.33
54816;BME280;40715;55.752;37.884;2022-10-30T05:46:54;97163.50;;;16.36;52.78
54816;BME280;40715;55.752;37.884;2022-10-30T05:49:26;97161.66;;;16.37;52.21
54816;BME280;40715;55.752;37.884;2022-10-30T05:51:53;97155.00;;;16.21;51.80
54816;BME280;40715;55.752;37.884;2022-10-30T05:54:20;97170.88;;;16.12;51.75
54816;BME280;40715;55.752;37.884;2022-10-30T05:56:46;97163.75;;;15.91;51.86
54816;BME280;40715;55.752;37.884;2022-10-30T05:59:13;97186.97;;;15.78;52.09
54816;BME280;40715;55.752;37.884;2022-10-30T06:01:40;97197.97;;;15.62;52.04
54816;BME280;40715;55.752;37.884;2022-10-30T06:04:07;97205.00;;;15.51;52.40
54816;BME280;40715;55.752;37.884;2022-10-30T06:06:34;97194.78;;;15.35;52.48
54816;BME280;40715;55.752;37.884;2022-10-30T06:09:01;97197.81;;;15.31;52.40
54816;BME280;40715;55.752;37.884;2022-10-30T06:11:28;97201.81;;;15.25;52.45
54816;BME280;40715;55.752;37.884;2022-10-30T06:13:54;97189.34;;;16.34;54.03
54816;BME280;40715;55.752;37.884;2022-10-30T06:16:21;97198.06;;;19.51;52.63
54816;BME280;40715;55.752;37.884;2022-10-30T06:18:49;97213.75;;;22.66;47.88
54816;BME280;40715;55.752;37.884;2022-10-30T06:21:16;97204.69;;;24.64;42.88
54816;BME280;40715;55.752;37.884;2022-10-30T06:23:42;97206.41;;;24.80;39.20
54816;BME280;40715;55.752;37.884;2022-10-30T06:26:09;97221.84;;;25.16;38.29
54816;BME280;40715;55.752;37.884;2022-10-30T06:28:36;97211.88;;;27.19;35.89
54816;BME280;40715;55.752;37.884;2022-10-30T06:31:03;97208.75;;;29.26;32.47
54816;BME280;40715;55.752;37.884;2022-10-30T06:33:30;97227.88;;;30.36;30.62
54816;BME280;40715;55.752;37.884;2022-10-30T06:35:57;97198.38;;;31.33;28.34
54816;BME280;40715;55.752;37.884;2022-10-30T06:38:24;97222.75;;;32.57;26.56
54816;BME280;40715;55.752;37.884;2022-10-30T06:40:51;97209.78;;;33.30;25.03
54816;BME280;40715;55.752;37.884;2022-10-30T06:43:18;97231.00;;;34.21;23.19
54816;BME280;40715;55.752;37.884;2022-10-30T06:45:45;97220.72;;;35.47;21.88
54816;BME280;40715;55.752;37.884;2022-10-30T06:48:11;97232.09;;;36.82;20.86
54816;BME280;40715;55.752;37.884;2022-10-30T06:50:41;97228.66;;;38.03;19.57
54816;BME280;40715;55.752;37.884;2022-10-30T06:53:07;97235.13;;;38.86;18.08
54816;BME280;40715;55.752;37.884;2022-10-30T06:55:34;97232.84;;;40.15;16.94
54816;BME280;40715;55.752;37.884;2022-10-30T06:58:01;97228.69;;;41.75;15.54
54816;BME280;40715;55.752;37.884;2022-10-30T07:00:28;97248.22;;;42.98;14.00
54816;BME280;40715;55.752;37.884;2022-10-30T07:02:59;97214.34;;;43.20;13.01
54816;BME280;40715;55.752;37.884;2022-10-30T07:05:27;97209.31;;;43.36;13.04
54816;BME280;40715;55.752;37.884;2022-10-30T07:07:57;97220.81;;;43.71;12.47
54816;BME280;40715;55.752;37.884;2022-10-30T07:10:24;97202.13;;;43.91;12.44
54816;BME280;40715;55.752;37.884;2022-10-30T07:12:55;97215.88;;;44.10;11.75
54816;BME280;40715;55.752;37.884;2022-10-30T07:15:23;97213.66;;;44.21;11.49
54816;BME280;40715;55.752;37.884;2022-10-30T07:17:57;97209.84;;;43.80;11.17
54816;BME280;40715;55.752;37.884;2022-10-30T07:20:27;97209.63;;;43.90;11.30
54816;BME280;40715;55.752;37.884;2022-10-30T07:22:54;97203.09;;;44.91;10.74
54816;BME280;40715;55.752;37.884;2022-10-30T07:25:21;97217.06;;;45.71;10.10
54816;BME280;40715;55.752;37.884;2022-10-30T07:27:50;97220.91;;;45.84;9.36
54816;BME280;40715;55.752;37.884;2022-10-30T07:30:20;97217.63;;;44.42;9.31
54816;BME280;40715;55.752;37.884;2022-10-30T07:33:02;97204.59;;;42.57;10.20
54816;BME280;40715;55.752;37.884;2022-10-30T07:35:30;97202.06;;;40.37;10.23
54816;BME280;40715;55.752;37.884;2022-10-30T07:38:04;97178.16;;;38.45;11.00
54816;BME280;40715;55.752;37.884;2022-10-30T07:40:32;97221.91;;;37.68;11.51
54816;BME280;40715;55.752;37.884;2022-10-30T07:43:00;97196.38;;;37.14;12.00
54816;BME280;40715;55.752;37.884;2022-10-30T07:45:28;97186.75;;;36.42;11.93
54816;BME280;40715;55.752;37.884;2022-10-30T07:47:55;97188.13;;;36.17;12.49
54816;BME280;40715;55.752;37.884;2022-10-30T07:50:23;97191.19;;;37.23;11.86
54816;BME280;40715;55.752;37.884;2022-10-30T07:52:50;97196.00;;;38.27;11.25
54816;BME280;40715;55.752;37.884;2022-10-30T07:55:17;97198.78;;;38.94;11.20
54816;BME280;40715;55.752;37.884;2022-10-30T07:57:43;97183.91;;;38.85;10.83
54816;BME280;40715;55.752;37.884;2022-10-30T08:00:12;97188.91;;;38.73;10.71
54816;BME280;40715;55.752;37.884;2022-10-30T08:02:40;97181.72;;;38.41;10.73
54816;BME280;40715;55.752;37.884;2022-10-30T08:05:08;97192.19;;;38.64;10.81
54816;BME280;40715;55.752;37.884;2022-10-30T08:07:36;97194.81;;;37.97;10.84
54816;BME280;40715;55.752;37.884;2022-10-30T08:10:05;97170.94;;;36.27;11.34
54816;BME280;40715;55.752;37.884;2022-10-30T08:12:33;97156.78;;;33.95;12.25
54816;BME280;40715;55.752;37.884;2022-10-30T08:15:00;97165.25;;;32.04;13.34
54816;BME280;40715;55.752;37.884;2022-10-30T08:17:28;97185.19;;;30.93;14.60
54816;BME280;40715;55.752;37.884;2022-10-30T08:19:55;97175.53;;;29.90;15.12
54816;BME280;40715;55.752;37.884;2022-10-30T08:22:23;97177.34;;;28.52;15.86
54816;BME280;40715;55.752;37.884;2022-10-30T08:24:50;97176.88;;;27.40;16.96
54816;BME280;40715;55.752;37.884;2022-10-30T08:27:18;97161.13;;;25.87;17.64
54816;BME280;40715;55.752;37.884;2022-10-30T08:29:44;97149.63;;;24.52;18.65
54816;BME280;40715;55.752;37.884;2022-10-30T08:32:12;97180.13;;;23.74;19.64
54816;BME280;40715;55.752;37.884;2022-10-30T08:34:39;97161.16;;;22.97;19.97
54816;BME280;40715;55.752;37.884;2022-10-30T08:37:06;97179.84;;;22.65;20.50
54816;BME280;40715;55.752;37.884;2022-10-30T08:39:33;97167.63;;;22.13;20.90
54816;BME280;40715;55.752;37.884;2022-10-30T08:42:00;97164.75;;;21.74;21.45
54816;BME280;40715;55.752;37.884;2022-10-30T08:44:27;97173.44;;;21.16;22.24
54816;BME280;40715;55.752;37.884;2022-10-30T08:46:54;97149.28;;;20.47;22.75
54816;BME280;40715;55.752;37.884;2022-10-30T08:49:21;97153.03;;;19.92;23.43
54816;BME280;40715;55.752;37.884;2022-10-30T08:51:47;97144.38;;;19.26;24.19
54816;BME280;40715;55.752;37.884;2022-10-30T08:54:15;97145.09;;;18.91;24.58
54816;BME280;40715;55.752;37.884;2022-10-30T08:56:42;97150.63;;;18.70;24.96
54816;BME280;40715;55.752;37.884;2022-10-30T08:59:08;97153.81;;;18.45;25.26
54816;BME280;40715;55.752;37.884;2022-10-30T09:04:21;97149.38;;;17.87;26.47
54816;BME280;40715;55.752;37.884;2022-10-30T09:06:48;97145.31;;;17.83;26.54
54816;BME280;40715;55.752;37.884;2022-10-30T09:09:14;97152.59;;;17.81;26.71
54816;BME280;40715;55.752;37.884;2022-10-30T09:11:41;97142.78;;;17.72;26.83
54816;BME280;40715;55.752;37.884;2022-10-30T09:14:27;97147.13;;;17.53;27.10
54816;BME280;40715;55.752;37.884;2022-10-30T09:17:12;97143.16;;;17.28;27.29
54816;BME280;40715;55.752;37.884;2022-10-30T09:19:39;97138.94;;;17.06;27.60
54816;BME280;40715;55.752;37.884;2022-10-30T09:22:07;97134.63;;;16.84;27.84
54816;BME280;40715;55.752;37.884;2022-10-30T09:24:34;97124.47;;;16.68;28.32
54816;BME280;40715;55.752;37.884;2022-10-30T09:27:01;97128.00;;;16.47;28.66
54816;BME280;40715;55.752;37.884;2022-10-30T09:29:28;97133.25;;;16.28;28.72
54816;BME280;40715;55.752;37.884;2022-10-30T09:31:57;97115.50;;;16.07;29.06
54816;BME280;40715;55.752;37.884;2022-10-30T09:34:24;97129.03;;;16.04;29.43
54816;BME280;40715;55.752;37.884;2022-10-30T09:36:53;97129.03;;;16.04;29.67
54816;BME280;40715;55.752;37.884;2022-10-30T09:39:20;97112.19;;;15.94;29.63
54816;BME280;40715;55.752;37.884;2022-10-30T09:50:31;97113.13;;;15.71;30.05
54816;BME280;40715;55.752;37.884;2022-10-30T10:01:16;97115.50;;;15.75;30.73
54816;BME280;40715;55.752;37.884;2022-10-30T10:04:15;97118.28;;;16.05;30.44
54816;BME280;40715;55.752;37.884;2022-10-30T10:06:52;97105.81;;;16.27;30.34
54816;BME280;40715;55.752;37.884;2022-10-30T10:09:39;97109.81;;;16.43;30.54
54816;BME280;40715;55.752;37.884;2022-10-30T10:12:25;97117.72;;;16.33;30.39
54816;BME280;40715;55.752;37.884;2022-10-30T10:14:55;97105.19;;;16.14;30.19
54816;BME280;40715;55.752;37.884;2022-10-30T10:17:36;97103.63;;;15.90;30.80
54816;BME280;40715;55.752;37.884;2022-10-30T10:20:16;97099.00;;;15.71;31.12
54816;BME280;40715;55.752;37.884;2022-10-30T10:22:50;97101.25;;;15.54;31.31
54816;BME280;40715;55.752;37.884;2022-10-30T10:25:19;97098.91;;;15.40;31.35
54816;BME280;40715;55.752;37.884;2022-10-30T10:30:57;97103.19;;;15.20;32.00
54816;BME280;40715;55.752;37.884;2022-10-30T10:36:50;97094.22;;;14.89;32.35
54816;BME280;40715;55.752;37.884;2022-10-30T10:42:38;97089.41;;;14.60;33.17
54816;BME280;40715;55.752;37.884;2022-10-30T10:50:48;97096.34;;;13.93;34.56
54816;BME280;40715;55.752;37.884;2022-10-30T10:53:39;97097.63;;;13.76;35.03
54816;BME280;40715;55.752;37.884;2022-10-30T10:58:55;97091.56;;;13.98;35.67
54816;BME280;40715;55.752;37.884;2022-10-30T11:01:47;97078.22;;;14.11;35.49
54816;BME280;40715;55.752;37.884;2022-10-30T11:04:23;97068.59;;;14.21;35.70
54816;BME280;40715;55.752;37.884;2022-10-30T11:06:54;97012.13;;;14.09;35.79
54816;BME280;40715;55.752;37.884;2022-10-30T11:09:23;97066.91;;;14.31;35.48
54816;BME280;40715;55.752;37.884;2022-10-30T11:11:52;97069.66;;;14.19;35.26
54816;BME280;40715;55.752;37.884;2022-10-30T11:14:39;97064.72;;;14.14;35.10
54816;BME280;40715;55.752;37.884;2022-10-30T11:17:12;97063.03;;;14.13;34.66
54816;BME280;40715;55.752;37.884;2022-10-30T11:19:41;97075.09;;;14.28;34.33
54816;BME280;40715;55.752;37.884;2022-10-30T11:22:25;97075.91;;;14.40;33.69
54816;BME280;40715;55.752;37.884;2022-10-30T11:24:54;97064.94;;;14.22;33.43
54816;BME280;40715;55.752;37.884;2022-10-30T11:29:56;97091.34;;;14.12;33.35
54816;BME280;40715;55.752;37.884;2022-10-30T11:32:30;97106.59;;;14.09;33.49
54816;BME280;40715;55.752;37.884;2022-10-30T11:40:59;97110.16;;;13.74;33.94
54816;BME280;40715;55.752;37.884;2022-10-30T11:43:27;97127.69;;;13.75;34.12
54816;BME280;40715;55.752;37.884;2022-10-30T11:45:54;97121.69;;;13.73;34.31
54816;BME280;40715;55.752;37.884;2022-10-30T11:51:12;97131.06;;;13.41;34.58
54816;BME280;40715;55.752;37.884;2022-10-30T11:56:34;97100.50;;;12.76;35.16
54816;BME280;40715;55.752;37.884;2022-10-30T11:59:03;97124.72;;;12.70;35.53
54816;BME280;40715;55.752;37.884;2022-10-30T12:01:34;97111.13;;;12.50;35.73
54816;BME280;40715;55.752;37.884;2022-10-30T12:04:24;97111.34;;;12.47;35.93
54816;BME280;40715;55.752;37.884;2022-10-30T12:07:17;97130.88;;;12.32;36.10
54816;BME280;40715;55.752;37.884;2022-10-30T12:16:11;97126.44;;;12.06;36.55
54816;BME280;40715;55.752;37.884;2022-10-30T12:18:39;97093.91;;;11.93;36.44
54816;BME280;40715;55.752;37.884;2022-10-30T12:21:07;97122.53;;;11.99;36.40
54816;BME280;40715;55.752;37.884;2022-10-30T12:23:34;97123.03;;;11.91;36.43
54816;BME280;40715;55.752;37.884;2022-10-30T12:28:59;97127.38;;;12.05;36.48
54816;BME280;40715;55.752;37.884;2022-10-30T12:31:37;97121.91;;;12.08;36.23
54816;BME280;40715;55.752;37.884;2022-10-30T12:37:13;97129.50;;;12.13;35.67
54816;BME280;40715;55.752;37.884;2022-10-30T12:40:07;97112.63;;;12.03;35.68
54816;BME280;40715;55.752;37.884;2022-10-30T12:43:18;97114.94;;;11.95;35.80
54816;BME280;40715;55.752;37.884;2022-10-30T12:45:40;97105.38;;;11.79;35.37
54816;BME280;40715;55.752;37.884;2022-10-30T12:53:48;97120.69;;;11.87;34.96
54816;BME280;40715;55.752;37.884;2022-10-30T12:56:28;97126.94;;;11.86;34.57
54816;BME280;40715;55.752;37.884;2022-10-30T13:01:40;97123.88;;;11.92;34.35
54816;BME280;40715;55.752;37.884;2022-10-30T13:04:20;97150.25;;;11.92;34.21
54816;BME280;40715;55.752;37.884;2022-10-30T13:09:37;97165.75;;;11.84;34.38
54816;BME280;40715;55.752;37.884;2022-10-30T13:12:51;97178.44;;;11.64;35.04
54816;BME280;40715;55.752;37.884;2022-10-30T13:15:20;97183.16;;;11.46;35.77
54816;BME280;40715;55.752;37.884;2022-10-30T13:17:48;97196.84;;;11.24;36.13
54816;BME280;40715;55.752;37.884;2022-10-30T13:20:16;97188.91;;;10.97;36.59
54816;BME280;40715;55.752;37.884;2022-10-30T13:22:50;97187.34;;;10.65;37.46
54816;BME280;40715;55.752;37.884;2022-10-30T13:28:11;97205.81;;;10.21;38.51
54816;BME280;40715;55.752;37.884;2022-10-30T13:30:45;97206.91;;;10.02;39.04
54816;BME280;40715;55.752;37.884;2022-10-30T13:33:38;97204.88;;;9.91;39.15
54816;BME280;40715;55.752;37.884;2022-10-30T13:36:24;97209.41;;;9.89;39.52
54816;BME280;40715;55.752;37.884;2022-10-30T13:50:09;97221.88;;;9.85;40.07
54816;BME280;40715;55.752;37.884;2022-10-30T13:52:42;97216.03;;;9.80;40.38
54816;BME280;40715;55.752;37.884;2022-10-30T13:55:18;97207.38;;;9.78;40.38
54816;BME280;40715;55.752;37.884;2022-10-30T14:24:02;97227.44;;;9.49;41.77
54816;BME280;40715;55.752;37.884;2022-10-30T14:35:26;97293.06;;;8.52;42.09
54816;BME280;40715;55.752;37.884;2022-10-30T14:37:56;97253.53;;;8.02;42.79
54816;BME280;40715;55.752;37.884;2022-10-30T14:46:47;97229.28;;;7.25;43.98
54816;BME280;40715;55.752;37.884;2022-10-30T14:49:39;97239.78;;;7.25;44.24
54816;BME280;40715;55.752;37.884;2022-10-30T14:52:28;97211.81;;;7.07;44.24
54816;BME280;40715;55.752;37.884;2022-10-30T15:00:47;97244.84;;;7.09;44.69
54816;BME280;40715;55.752;37.884;2022-10-30T15:03:31;97252.16;;;7.03;44.59
54816;BME280;40715;55.752;37.884;2022-10-30T15:13:00;97244.34;;;6.82;44.48
54816;BME280;40715;55.752;37.884;2022-10-30T15:15:31;97266.22;;;6.81;44.18
54816;BME280;40715;55.752;37.884;2022-10-30T15:18:17;97279.91;;;6.67;44.44
54816;BME280;40715;55.752;37.884;2022-10-30T15:21:22;97291.31;;;6.46;44.57
54816;BME280;40715;55.752;37.884;2022-10-30T15:24:16;97284.06;;;6.32;44.58
54816;BME280;40715;55.752;37.884;2022-10-30T15:26:48;97279.53;;;6.35;44.76
54816;BME280;40715;55.752;37.884;2022-10-30T15:29:23;97288.31;;;6.34;44.85
54816;BME280;40715;55.752;37.884;2022-10-30T15:32:17;97279.81;;;6.29;44.63
54816;BME280;40715;55.752;37.884;2022-10-30T15:35:03;97303.75;;;6.20;44.55
54816;BME280;40715;55.752;37.884;2022-10-30T15:37:30;97306.66;;;6.12;44.71
54816;BME280;40715;55.752;37.884;2022-10-30T15:42:40;97297.19;;;6.10;45.08
54816;BME280;40715;55.752;37.884;2022-10-30T15:45:32;97320.88;;;6.27;45.09
54816;BME280;40715;55.752;37.884;2022-10-30T15:48:07;97304.13;;;6.31;45.04
54816;BME280;40715;55.752;37.884;2022-10-30T15:50:38;97321.31;;;6.37;45.17
54816;BME280;40715;55.752;37.884;2022-10-30T15:53:24;97329.56;;;6.48;45.18